• Join FlightAware (Why Join?)
  • Login
  • US Flag 
05:15AM EDT


 

Airport Tracker/Info


-or-


 

Live Flight TrackerFlight Track Log ✈ AVN11 ✈ 14-Oct-2013 ✈ YSSY / SYD - NVVV / VLI

Flight Track Log - Related Links

Times and Time Zones

All times are in EDT time to prevent confusion due to time zone crossing. See the AVN11 flight status page for this flight to view local times or setup timezone preferences in your user account.

Time Position Orientation Groundspeed Altitude Reporting Facility
EDT Latitude Longitude Course Direction KTS MPH feet Rate Location/Type
09:02PM -33.9446 151.1756 94° East 86 99  Level FlightAware ADS-B (YRAY)
09:02PM -33.9560 151.1785 168° South 155 178 720 Level FlightAware ADS-B (YRAY)
09:02PM -34.0263 151.1894 354° North 6,600 1,500 Climbing Aus ATC (Calculated)
09:02PM -33.9707 151.1821 169° South 165 190 500 -15,720 Descending FlightAware ADS-B (YRAY)
09:03PM -33.9820 151.1816 169° South 166 191 1,100 1,980 Climbing FlightAware ADS-B
09:03PM -33.9939 151.1802 185° South 178 205 1,500 1,260 Climbing FlightAware ADS-B (YRAY)
09:03PM -34.0263 151.1894 344° North 6,600 1,020 Climbing Aus ATC (Calculated)
09:03PM -33.9977 151.1797 186° South 188 216 1,800 -19,740 Descending FlightAware ADS-B
09:03PM -34.0172 151.1784 183° South 201 231 2,000 1,500 Climbing FlightAware ADS-B
09:04PM -34.0261 151.1799 183° South 216 249 2,300 2,160 Climbing FlightAware ADS-B
09:04PM -34.0477 151.1846 170° South 220 253 3,100 2,160 Climbing FlightAware ADS-B
09:04PM -34.0603 151.1899 161° South 225 259 3,500 1,560 Climbing FlightAware ADS-B (YRAY)
09:04PM -34.0658 151.1950 143° Southeast 222 255 3,600 1,320 Climbing FlightAware ADS-B
09:04PM -34.0734 151.2078 126° Southeast 261 300 3,900 1,380 Climbing FlightAware ADS-B
09:05PM -34.0768 151.2205 107° East 276 318 4,100 900 Climbing FlightAware ADS-B
09:05PM -34.1067 151.2017 31° Northeast 25,700  Climbing Aus ATC (Calculated)
09:05PM -34.0770 151.2230 94° East 276 318 4,100 -128,400 Descending FlightAware
09:05PM -34.0773 151.2301 94° East 292 336 4,300 1,380 Climbing FlightAware ADS-B
09:05PM -34.1067 151.2017 52° Northeast 25,700 1,200 Climbing Aus ATC (Calculated)
09:05PM -34.0722 151.2547 80° East 304 350 4,500 -141,360 Descending FlightAware ADS-B
09:05PM -34.0720 151.2550 59° Northeast 302 348 4,500 660 Level FlightAware
09:05PM -34.0680 151.2630 59° Northeast 306 352 4,600 3,000 Climbing FlightAware
09:05PM -34.0642 151.2706 59° Northeast 308 354 4,900 3,300 Climbing FlightAware ADS-B
09:05PM -34.0516 151.2979 60° Northeast 312 359 5,700 2,520 Climbing FlightAware ADS-B
09:06PM -34.0413 151.3248 65° Northeast 319 367 6,500 2,220 Climbing FlightAware ADS-B
09:06PM -34.0279 151.3577 64° Northeast 326 375 7,200 1,320 Climbing FlightAware ADS-B
09:07PM -34.0032 151.4187 64° Northeast 362 417 7,700 1,140 Climbing FlightAware ADS-B
09:07PM -33.9899 151.4523 65° Northeast 374 430 8,200 1,920 Climbing FlightAware ADS-B
09:07PM -33.9727 151.4946 64° Northeast 379 436 9,000 2,100 Climbing FlightAware ADS-B
09:08PM -33.9520 151.5462 64° Northeast 390 449 9,900 1,860 Climbing FlightAware ADS-B
09:08PM -33.9314 151.5988 65° Northeast 400 460 11,000 1,860 Climbing FlightAware ADS-B
09:09PM -33.9001 151.6789 65° Northeast 411 473 12,000 2,160 Climbing FlightAware ADS-B
09:09PM -33.8676 151.7608 64° Northeast 418 481 13,500 2,340 Climbing FlightAware ADS-B
09:11PM -33.8141 151.8938 64° Northeast 432 497 16,000 2,340 Climbing FlightAware ADS-B
09:11PM -33.7820 151.9520 56° Northeast 438 504 17,100 2,340 Climbing FlightAware ADS-B
09:12PM -33.7361 152.0164 49° Northeast 445 512 18,500 1,800 Climbing FlightAware ADS-B
09:13PM -33.6530 152.1330 49° Northeast 456 525 20,100 1,620 Climbing FlightAware
09:13PM -33.6080 152.1950 49° Northeast 467 537 21,100 -5,760 Climbing FlightAware
09:14PM -33.8574 151.7863 49° Northeast 418 481 14,100 1,740 Descending Aus ATC (RADAR)
09:14PM -33.5600 152.2630 49° Northeast 473 544 22,100 55,320 Climbing FlightAware
09:14PM -33.7439 152.0054 229° Southwest 467 537 22,400 1,500 Climbing FlightAware ADS-B
09:14PM -33.5110 152.3310 49° Northeast 482 555 23,000 1,380 Climbing FlightAware
09:15PM -33.4620 152.4000 50° Northeast 486 559 23,900 1,620 Climbing FlightAware
09:15PM -33.4080 152.4750 49° Northeast 490 564 24,900 1,440 Climbing FlightAware
09:16PM -33.3550 152.5470 49° Northeast 496 571 25,600 1,020 Climbing FlightAware
09:17PM -33.3010 152.6220 49° Northeast 508 585 26,100 780 Climbing FlightAware
09:17PM -33.2440 152.7010 49° Northeast 520 598 26,600 960 Climbing FlightAware
09:18PM -33.1810 152.7890 49° Northeast 524 603 27,400 1,500 Climbing FlightAware
09:19PM -33.1270 152.8630 49° Northeast 516 594 28,500 1,740 Climbing FlightAware
09:19PM -33.0730 152.9360 49° Northeast 511 588 29,400 1,200 Climbing FlightAware
09:20PM -33.0090 153.0240 49° Northeast 520 598 30,000 900 Climbing FlightAware
09:20PM -32.9640 153.0860 49° Northeast 523 602 30,500 1,080 Climbing FlightAware
09:21PM -32.9120 153.1570 49° Northeast 522 601 31,200 1,380 Climbing FlightAware
09:21PM -32.8500 153.2420 49° Northeast 513 590 32,200 1,320 Climbing FlightAware
09:22PM -32.7910 153.3220 49° Northeast 508 585 32,900 900 Climbing FlightAware
09:23PM -32.7430 153.3870 49° Northeast 511 588 33,300 600 Climbing FlightAware
09:23PM -32.6830 153.4670 48° Northeast 517 595 33,600 -2,640 Climbing FlightAware
09:24PM -33.0214 153.0070 48° Northeast 512 589 30,100 900 Descending Aus ATC (RADAR)
09:24PM -32.6190 153.5540 48° Northeast 516 594 34,200 780 Climbing FlightAware
09:24PM -32.9580 153.0936 48° Northeast 521 600 30,600 720 Descending Aus ATC (RADAR)
09:24PM -32.5690 153.6200 48° Northeast 514 592 34,600 7,080 Climbing FlightAware
09:25PM -32.5120 153.6970 49° Northeast 515 593 35,000 660 Climbing FlightAware
09:26PM -32.4590 153.7690 49° Northeast 513 590 35,400 660 Climbing FlightAware
09:26PM -32.4050 153.8420 49° Northeast 511 588 35,800 -1,500 Climbing FlightAware
09:27PM -32.7308 153.4029 49° Northeast 510 587 33,500 660 Descending Aus ATC (RADAR)
09:27PM -32.3340 153.9360 49° Northeast 508 585 36,300 4,800 Climbing FlightAware
09:28PM -32.2770 154.0130 49° Northeast 510 587 36,400 120 Climbing FlightAware
09:28PM -32.2260 154.0810 48° Northeast 515 593 36,500 -1,080 Climbing FlightAware
09:29PM -32.4932 153.7226 48° Northeast 501 577 35,200 120 Descending Aus ATC (RADAR)
09:29PM -32.1720 154.1510 48° Northeast 518 596 36,600 2,880 Climbing FlightAware
09:29PM -32.1160 154.2240 48° Northeast 517 595 36,900 300 Climbing FlightAware
09:30PM -32.0600 154.2990 49° Northeast 517 595 37,000 60 Climbing FlightAware
09:31PM -31.9850 154.3980 48° Northeast 517 595 37,000  Level FlightAware
09:31PM -31.9360 154.4620 48° Northeast 516 594 37,000  Level FlightAware
09:32PM -31.8880 154.5260 49° Northeast 516 594 37,000  Level FlightAware
09:32PM -31.8250 154.6090 48° Northeast 514 592 37,000 -420 Level FlightAware
09:33PM -32.1974 154.1180 48° Northeast 514 592 36,600  Descending Aus ATC (RADAR)
09:33PM -31.7670 154.6840 48° Northeast 512 589 37,000 600 Climbing FlightAware
09:34PM -31.7160 154.7510 48° Northeast 512 589 37,000  Level FlightAware
09:34PM -31.6600 154.8240 48° Northeast 512 589 37,000  Level FlightAware
09:35PM -31.6070 154.8920 48° Northeast 511 588 37,000  Level FlightAware
09:35PM -31.5440 154.9750 48° Northeast 508 585 37,000  Level FlightAware
09:36PM -31.4850 155.0510 48° Northeast 506 582 37,000  Level FlightAware
09:36PM -31.4440 155.1030 47° Northeast 505 581 37,000  Level FlightAware
09:37PM -31.3740 155.1930 48° Northeast 505 581 37,000  Level FlightAware
09:38PM -31.3240 155.2560 47° Northeast 505 581 37,000  Level FlightAware
09:38PM -31.2750 155.3170 47° Northeast 505 581 37,000  Level FlightAware
09:39PM -31.2260 155.3790 47° Northeast 505 581 37,000  Level FlightAware
09:40PM -31.1770 155.4400 47° Northeast 505 581 37,000  Level FlightAware
09:40PM -31.1280 155.5010 47° Northeast 505 581 37,000  Level FlightAware
09:41PM -31.0800 155.5620 47° Northeast 505 581 37,000  Level FlightAware
09:41PM -31.0310 155.6230 47° Northeast 505 581 37,000  Level FlightAware
09:42PM -30.9810 155.6860 47° Northeast 505 581 37,000  Level FlightAware
09:43PM -30.9320 155.7460 46° Northeast 505 581 37,000  Level FlightAware
09:43PM -30.8830 155.8070 47° Northeast 505 581 37,000  Level FlightAware
09:44PM -30.8330 155.8700 47° Northeast 505 581 37,000  Level FlightAware
09:44PM -30.7840 155.9310 47° Northeast 505 581 37,000  Level FlightAware
09:45PM -30.7360 155.9920 48° Northeast 505 581 37,000  Level FlightAware
09:46PM -30.6870 156.0530 47° Northeast 505 581 37,000  Level FlightAware
09:46PM -30.6370 156.1150 47° Northeast 505 581 37,000  Level FlightAware
09:47PM -30.8616 155.8498 47° Northeast 515 593 37,000  Level Aus ATC (RADAR)
09:48PM -30.7421 156.0051 48° Northeast 515 593 37,000  Level Aus ATC (RADAR)
09:48PM -30.4851 156.3455 49° Northeast 507 583 37,000 -180 Level Aus ATC (RADAR)
09:49PM -30.2292 156.6797 49° Northeast 502 578 36,800 -180 Descending Aus ATC (RADAR)
09:50PM -30.1750 156.7504 48° Northeast 502 578 36,800  Level Aus ATC (RADAR)
09:51PM -30.0805 156.8729 48° Northeast 508 585 36,800  Level Aus ATC (RADAR)
09:51PM -30.0489 156.9138 48° Northeast 509 586 36,800  Level Aus ATC (RADAR)
09:53PM -29.8923 157.1172 48° Northeast 507 583 36,800  Level Aus ATC (RADAR)
09:53PM -29.8602 157.1582 48° Northeast 508 585 36,800  Level Aus ATC (RADAR)
09:54PM -29.7969 157.2397 48° Northeast 510 587 36,800  Level Aus ATC (RADAR)
09:54PM -29.7326 157.3224 48° Northeast 514 592 36,800  Level Aus ATC (RADAR)
09:55PM -29.6762 157.3941 48° Northeast 515 593 36,800  Level Aus ATC (RADAR)
09:56PM -29.6052 157.4856 48° Northeast 512 589 36,800  Level Aus ATC (RADAR)
09:56PM -29.5662 157.5364 49° Northeast 510 587 36,800 240 Level Aus ATC (RADAR)
09:56PM -29.5340 157.5750 49° Northeast 518 596 37,000  Climbing FlightAware
09:57PM -29.4760 157.6509 49° Northeast 519 597 36,800  Descending Aus ATC (RADAR)
09:57PM -29.4740 157.6510 49° Northeast 518 596 37,000 240 Climbing FlightAware
09:58PM -29.4250 157.7140 48° Northeast 518 596 37,000  Level FlightAware
09:58PM -29.3750 157.7780 48° Northeast 518 596 37,000  Level FlightAware
09:59PM -29.3250 157.8410 48° Northeast 518 596 37,000  Level FlightAware
10:00PM -29.2760 157.9030 48° Northeast 518 596 37,000  Level FlightAware
10:00PM -29.2260 157.9670 48° Northeast 518 596 37,000  Level FlightAware
10:01PM -29.1770 158.0300 48° Northeast 518 596 37,000  Level FlightAware
10:01PM -29.1280 158.0920 48° Northeast 518 596 37,000  Level FlightAware
10:02PM -29.0790 158.1540 48° Northeast 518 596 37,000  Level FlightAware
10:03PM -29.0300 158.2170 48° Northeast 518 596 37,000  Level FlightAware
10:03PM -28.9810 158.2790 48° Northeast 518 596 37,000  Level FlightAware
10:04PM -28.9320 158.3410 48° Northeast 518 596 37,000  Level FlightAware
10:04PM -28.8810 158.4050 48° Northeast 518 596 37,000  Level FlightAware
10:05PM -28.8320 158.4680 48° Northeast 518 596 37,000  Level FlightAware
10:06PM -28.7830 158.5300 48° Northeast 518 596 37,000  Level FlightAware
10:06PM -28.7200 158.6090 48° Northeast 518 596 37,000  Level FlightAware
10:07PM -28.5484 158.8107 47° Northeast 37,000  Level Aus ATC (Calculated)
10:09PM -28.3758 159.0230 47° Northeast  Level FlightAware Approximate
10:10PM -28.2878 159.1307 47° Northeast  Level FlightAware Approximate
10:10PM -28.2743 159.1476 47° Northeast 37,000  Level Aus ATC (Calculated)
10:12PM -28.1057 159.3503 47° Northeast  Level FlightAware Approximate
10:12PM -27.9700 159.5184 240° Southwest 37,000  Level Aus ATC (Calculated)
10:13PM -28.0071 159.4450 47° Northeast  Level Estimated
10:13PM -27.9700 159.5184 47° Northeast 37,000  Level Aus ATC (Calculated)
10:14PM -27.8818 159.6253 47° Northeast  Level FlightAware Approximate
10:15PM -27.7935 159.7320 47° Northeast  Level FlightAware Approximate
10:15PM -27.7857 159.7413 47° Northeast 37,000  Level Aus ATC (Calculated)
10:17PM -27.6103 159.9525 47° Northeast  Level FlightAware Approximate
10:18PM -27.5217 160.0587 47° Northeast  Level FlightAware Approximate
10:19PM -27.4330 160.1647 47° Northeast  Level FlightAware Approximate
10:19PM -27.3089 160.3127 227° Southwest 37,000  Level Aus ATC (Calculated)
10:20PM -27.3443 160.2706 47° Northeast  Level FlightAware Approximate
10:21PM -27.1978 160.4448 47° Northeast  Level FlightAware Approximate
10:21PM -27.0928 160.5692 46° Northeast 37,000  Level Aus ATC (Calculated)
10:22PM -27.0274 160.6465 46° Northeast 37,000  Level Aus ATC (Calculated)
10:23PM -26.9830 160.6990 46° Northeast  Level FlightAware Approximate
10:23PM -26.9006 160.7961 226° Southwest 37,000  Level Aus ATC (Calculated)
10:24PM -26.9160 160.7779 46° Northeast  Level FlightAware Approximate
10:25PM -26.7905 160.9254 46° Northeast  Level FlightAware Approximate
10:26PM -26.7012 161.0300 46° Northeast  Level FlightAware Approximate
10:26PM -26.7220 161.0057 46° Northeast 37,000  Level Aus ATC (Calculated)
10:27PM -26.6326 161.1103 46° Northeast  Level FlightAware Approximate
10:28PM -26.5432 161.2147 46° Northeast  Level FlightAware Approximate
10:28PM -26.5058 161.2582 46° Northeast 37,000  Level Aus ATC (Calculated)
10:30PM -26.3281 161.4646 46° Northeast  Level FlightAware Approximate
10:30PM -26.2331 161.5745 360° North 37,000  Level Aus ATC (Calculated)
10:30PM -26.2331 161.5745 46° Northeast 37,000  Level Aus ATC (Calculated)
10:32PM -26.1089 161.7178 46° Northeast  Level FlightAware Approximate
10:33PM -26.0191 161.8213 46° Northeast  Level FlightAware Approximate
10:34PM -25.9291 161.9246 46° Northeast  Level FlightAware Approximate
10:35PM -25.8391 162.0277 46° Northeast  Level FlightAware Approximate
10:36PM -25.7490 162.1306 46° Northeast  Level FlightAware Approximate
10:37PM -25.6588 162.2335 46° Northeast  Level FlightAware Approximate
10:38PM -25.5685 162.3361 46° Northeast  Level FlightAware Approximate
10:38PM -25.4907 162.4245 46° Northeast 37,000  Level Aus ATC (Calculated)
10:39PM -25.4003 162.5268 46° Northeast  Level FlightAware Approximate
10:40PM -25.3099 162.6290 46° Northeast  Level FlightAware Approximate
10:41PM -25.2194 162.7311 46° Northeast  Level FlightAware Approximate
10:42PM -25.1288 162.8330 46° Northeast  Level FlightAware Approximate
10:43PM -25.0381 162.9348 45° Northeast  Level FlightAware Approximate
10:44PM -24.9474 163.0363 45° Northeast  Level FlightAware Approximate
10:45PM -25.0381 162.9347 225° Southwest  Level FlightAware Approximate
10:46PM -24.9474 163.0363 45° Northeast  Level FlightAware Approximate
10:47PM -25.0381 162.9347 225° Southwest  Level FlightAware Approximate
10:48PM -24.9474 163.0363 45° Northeast  Level FlightAware Approximate
10:49PM -25.0381 162.9347 225° Southwest  Level FlightAware Approximate
10:50PM -24.9531 163.0299 45° Northeast  Level FlightAware Approximate
10:51PM -24.8622 163.1313 45° Northeast  Level FlightAware Approximate
10:52PM -24.7712 163.2326 45° Northeast  Level FlightAware Approximate
10:53PM -24.6803 163.3336 45° Northeast  Level FlightAware Approximate
10:54PM -24.5892 163.4346 45° Northeast  Level FlightAware Approximate
10:55PM -24.4980 163.5354 45° Northeast  Level FlightAware Approximate
10:56PM -24.4068 163.6360 45° Northeast  Level FlightAware Approximate
10:57PM -24.3156 163.7365 45° Northeast  Level FlightAware Approximate
10:58PM -24.2242 163.8369 45° Northeast  Level FlightAware Approximate
10:59PM -24.1328 163.9371 45° Northeast  Level FlightAware Approximate
11:00PM -24.0413 164.0372 45° Northeast  Level FlightAware Approximate
11:01PM -23.9498 164.1371 45° Northeast  Level FlightAware Approximate
11:02PM -23.8582 164.2369 45° Northeast  Level FlightAware Approximate
11:03PM -23.7666 164.3366 45° Northeast  Level FlightAware Approximate
11:04PM -23.6748 164.4361 45° Northeast  Level FlightAware Approximate
11:05PM -23.5830 164.5354 45° Northeast  Level FlightAware Approximate
11:06PM -23.4912 164.6347 45° Northeast  Level FlightAware Approximate
11:07PM -23.3993 164.7337 45° Northeast  Level FlightAware Approximate
11:08PM -23.3073 164.8327 45° Northeast  Level FlightAware Approximate
11:09PM -23.2152 164.9315 45° Northeast  Level FlightAware Approximate
11:10PM -23.1231 165.0301 45° Northeast  Level FlightAware Approximate
11:11PM -23.0309 165.1286 45° Northeast  Level FlightAware Approximate
11:12PM -22.9387 165.2270 44° Northeast  Level FlightAware Approximate
11:13PM -22.8463 165.3253 44° Northeast  Level FlightAware Approximate
11:14PM -22.7540 165.4234 44° Northeast  Level FlightAware Approximate
11:15PM -22.6616 165.5214 44° Northeast  Level FlightAware Approximate
11:16PM -22.5691 165.6192 44° Northeast  Level FlightAware Approximate
11:17PM -22.4765 165.7169 44° Northeast  Level FlightAware Approximate
11:18PM -22.3839 165.8145 44° Northeast  Level FlightAware Approximate
11:19PM -22.2913 165.9120 44° Northeast  Level FlightAware Approximate
11:20PM -22.1985 166.0093 44° Northeast  Level FlightAware Approximate
11:21PM -22.1058 166.1065 44° Northeast  Level FlightAware Approximate
11:22PM -22.0129 166.2036 44° Northeast  Level FlightAware Approximate
11:23PM -21.8969 166.2637 24° Northeast  Level FlightAware Approximate
11:24PM -21.7788 166.3203 24° Northeast  Level FlightAware Approximate
11:25PM -21.6607 166.3768 24° Northeast  Level FlightAware Approximate
11:26PM -21.5425 166.4332 24° Northeast  Level FlightAware Approximate
11:27PM -21.4244 166.4896 24° Northeast  Level FlightAware Approximate
11:28PM -21.3062 166.5458 24° Northeast  Level FlightAware Approximate
11:29PM -21.1880 166.6020 24° Northeast  Level FlightAware Approximate
11:30PM -21.0697 166.6580 24° Northeast  Level FlightAware Approximate
11:31PM -20.9515 166.7140 24° Northeast  Level FlightAware Approximate
11:32PM -20.8332 166.7699 24° Northeast  Level FlightAware Approximate
11:33PM -20.7149 166.8257 24° Northeast  Level FlightAware Approximate
11:34PM -20.5966 166.8814 24° Northeast  Level FlightAware Approximate
11:35PM -20.4783 166.9370 24° Northeast  Level FlightAware Approximate
11:36PM -20.3599 166.9925 24° Northeast  Level FlightAware Approximate
11:37PM -20.2416 167.0480 24° Northeast  Level FlightAware Approximate
11:38PM -20.1232 167.1033 24° Northeast  Level FlightAware Approximate
11:39PM -20.0048 167.1586 24° Northeast  Level FlightAware Approximate
11:40PM -19.8864 167.2138 24° Northeast  Level FlightAware Approximate
11:41PM -19.7680 167.2689 24° Northeast  Level FlightAware Approximate
11:42PM -19.6495 167.3240 24° Northeast  Level FlightAware Approximate
11:43PM -19.5311 167.3789 24° Northeast  Level FlightAware Approximate
11:44PM -19.4127 167.4341 24° Northeast  Level FlightAware Approximate
11:45PM -19.2944 167.4892 24° Northeast  Level FlightAware Approximate
11:46PM -19.1761 167.5443 24° Northeast  Level FlightAware Approximate
11:47PM -19.0577 167.5994 24° Northeast  Level FlightAware Approximate
11:48PM -18.9393 167.6543 24° Northeast  Level FlightAware Approximate
11:49PM -18.8209 167.7092 24° Northeast  Level FlightAware Approximate
11:50PM -18.7025 167.7639 24° Northeast  Level FlightAware Approximate
11:51PM -18.5841 167.8186 24° Northeast  Level FlightAware Approximate
11:52PM -18.4657 167.8734 24° Northeast  Level FlightAware Approximate
11:53PM -18.3473 167.9283 24° Northeast  Level FlightAware Approximate
11:54PM -18.2290 167.9830 24° Northeast  Level FlightAware Approximate
11:55PM -18.1106 168.0376 24° Northeast  Level FlightAware Approximate
11:56PM -17.9922 168.0922 24° Northeast  Level FlightAware Approximate
11:57PM -17.8737 168.1467 24° Northeast  Level FlightAware Approximate
11:58PM -17.7553 168.2012 24° Northeast  Level FlightAware Approximate
11:59PM -17.6621 168.2439 24° Northeast  Level FlightAware Approximate
12:00AM -17.6993 168.3198 24° Northeast  Level Estimated
12:01AM -17.6993 168.3198 24° Northeast  Level Estimated
12:02AM -17.6993 168.3198 24° Northeast  Level Estimated
12:03AM -17.6993 168.3198 24° Northeast  Level Estimated
12:04AM -17.6993 168.3198 24° Northeast  Level Estimated
12:05AM -17.6993 168.3198 24° Northeast  Level Estimated
12:06AM -17.6993 168.3198 24° Northeast  Level Estimated
12:07AM -17.6993 168.3198 24° Northeast  Level Estimated
12:08AM -17.6993 168.3198 24° Northeast  Level Estimated
12:09AM -17.6993 168.3198 24° Northeast  Level Estimated
12:10AM -17.6993 168.3198 24° Northeast  Level Estimated